Terminal Aerodrome Forecast
Issued by NWS

Home | Current Version | Previous Version | Text Only | Print | Product List | Glossary On
Versions: 1 2 3 4 5 6 7 8 9 10 11 12 13 14 15 16 17 18 19 20 21
000
FTUS46 KHNX 011304 AAA
TAFMER
TAF AMD
KMER 011304Z 0113/0212 00000KT 1 1/2SM BR SKC
      TEMPO 0113/0117 3/4SM BR BKN003
     FM011900 VRB03KT 2SM HZ SCT006
     FM012100 VRB03KT 4SM HZ SCT200
     FM020400 00000KT 3SM BR BKN200
     FM020600 00000KT 1 1/2SM BR BKN200
      TEMPO 0208/0212 3/4SM BR=

USA.gov is the U.S. government's official web portal to all federal, state and local government web resources and services.